• Join FlightAware (Why Join?)
  • Login
  • US Flag 
02:39AM EDT


 

Airport Tracker/Info


-or-


 

Live Flight TrackerFlight Track Log ✈ DAL6234 ✈ 18-Apr-2013 ✈ KLGA - KSYR

Flight Track Log - Related Links

Times and Time Zones

All times are in EDT time to prevent confusion due to time zone crossing. See the DAL6234 flight status page for this flight to view local times or setup timezone preferences in your user account.

Time Position Orientation Groundspeed Altitude Reporting Facility
EDT Latitude Longitude Course Direction KTS MPH feet Rate Location/Type
04:56PM 40.7667 -73.8500 153° Southeast 141 162 1,400  Level New York TRACON
04:57PM 40.7167 -73.8167 153° Southeast 208 239 3,200 1,680 Climbing New York TRACON
04:58PM 40.7667 -73.7500 45° Northeast 292 336 5,000 2,220 Climbing New York TRACON
04:59PM 40.8333 -73.8000 330° Northwest 283 326 7,700 1,500 Climbing New York TRACON
05:00PM 40.8667 -73.8833 298° West 271 312 8,000 1,680 Climbing New York TRACON
05:02PM 40.9611 -74.0794 303° West 294 338 13,200 2,100 Climbing New York Center
05:03PM 41.0067 -74.1642 305° West 307 353 14,900 900 Climbing New York Center
05:04PM 41.0600 -74.2603 306° West 325 374 15,100 540 Climbing New York Center
05:05PM 41.1133 -74.3622 305° West 316 364 16,000 420 Climbing New York Center
05:06PM 41.1586 -74.4472 305° West 316 364 16,000  Level New York Center
05:07PM 41.2136 -74.5497 306° West 316 364 16,000 900 Level New York Center
05:08PM 41.2650 -74.6381 308° West 327 376 17,800 1,800 Climbing New York Center
05:09PM 41.3219 -74.7353 308° West 333 383 19,600 1,860 Climbing New York Center
05:10PM 41.3856 -74.8303 312° West 333 383 21,600 1,140 Climbing New York Center
05:11PM 41.4508 -74.9311 311° West 345 397 22,000 180 Climbing New York Center
05:12PM 41.5097 -75.0289 309° West 345 397 22,000  Level New York Center
05:13PM 41.5689 -75.1214 311° West 340 391 22,000  Level New York Center
05:14PM 41.6256 -75.2194 308° West 340 391 22,000  Level New York Center
05:15PM 41.6822 -75.3175 308° West 335 386 22,000  Level New York Center
05:16PM 41.7389 -75.4131 308° West 335 386 22,000  Level New York Center
05:17PM 41.8033 -75.5233 308° West 335 386 22,000  Level New York Center
05:18PM 41.8619 -75.6194 309° West 335 386 22,000  Level New York Center
05:19PM 41.9181 -75.7183 307° West 335 386 22,000  Level New York Center
05:20PM 41.9764 -75.8175 308° West 335 386 22,000 -600 Level New York Center
05:21PM 42.0344 -75.9197 307° West 335 386 20,800 -1,560 Descending New York Center
05:22PM 42.0883 -76.0189 306° West 335 386 18,900 -1,920 Descending New York Center
05:23PM 42.1489 -76.1106 312° West 335 386 17,100 -1,680 Descending New York Center
05:24PM 42.2378 -76.1261 353° North 308 354 15,600 -1,320 Descending New York Center
05:25PM 42.3256 -76.1192 North 311 358 14,500 -1,200 Descending New York Center
05:26PM 42.4153 -76.1097 North 322 371 13,200 -1,500 Descending New York Center
05:26PM 42.4539 -76.1014 North 326 375 12,600 -1,260 Descending Boston Center
05:27PM 42.4914 -76.1008 North 317 365 12,200 -960 Descending Boston Center
05:28PM 42.5772 -76.0919 North 311 358 11,200 -1,080 Descending Boston Center
05:29PM 42.6672 -76.0803 North 319 367 10,100 -1,260 Descending Boston Center
05:30PM 42.7542 -76.1022 350° North 293 337 8,700 -1,440 Descending Boston Center
05:31PM 42.8328 -76.1211 350° North 282 325 7,300 -1,380 Descending Boston Center
05:32PM 42.8933 -76.1814 324° Northwest 266 306 6,000 -1,320 Descending Boston Center
05:33PM 42.9581 -76.2450 324° Northwest 279 321 4,700 -1,020 Descending Boston Center
05:34PM 43.0208 -76.2944 330° Northwest 262 302 4,000 -480 Descending Boston Center
05:35PM 43.0833 -76.3011 356° North 240 276 3,800 -420 Descending Boston Center
05:36PM 43.1433 -76.2508 31° Northeast 251 289 3,200 -840 Descending Boston Center
05:37PM 43.1744 -76.1928 54° Northeast 176 203 2,100 -1,020 Descending Boston Center
05:38PM 43.1483 -76.1600 138° Southeast 106 122 1,200 -900 Descending Boston Center